Time;durP1;ratioP1;P1;durP2;ratioP2;P2;SDS_P1;SDS_P2;PMS_P1;PMS_P2;Temp;Humidity;BMP_temperature;BMP_pressure;BME280_temperature;BME280_humidity;BME280_pressure;Samples;Min_cycle;Max_cycle;Signal;HPM_P1;HPM_P2
2023/05/08 00:00:28;;;;;;;21.02;16.05;;;10.90;99.90;;;;;;5086313;28;20047;-65
2023/05/08 00:02:54;;;;;;;21.95;17.48;;;10.90;99.90;;;;;;5067796;28;20035;-66
2023/05/08 00:05:20;;;;;;;23.67;16.90;;;10.90;99.90;;;;;;5049637;28;20392;-68
2023/05/08 00:07:46;;;;;;;23.25;16.83;;;10.90;99.90;;;;;;5065604;28;20051;-65
2023/05/08 00:10:11;;;;;;;23.95;17.63;;;10.90;99.90;;;;;;5066804;28;20056;-72
2023/05/08 00:12:37;;;;;;;25.00;16.85;;;10.90;99.90;;;;;;5081528;28;20036;-68
2023/05/08 00:15:04;;;;;;;24.00;17.48;;;10.90;99.90;;;;;;5066100;28;20037;-67
2023/05/08 00:17:30;;;;;;;22.92;17.95;;;10.90;99.90;;;;;;5082566;28;20047;-70
2023/05/08 00:19:56;;;;;;;22.08;17.30;;;10.90;99.90;;;;;;5051076;28;20466;-67
2023/05/08 00:22:25;;;;;;;22.52;17.42;;;10.90;99.90;;;;;;5049603;28;20086;-66
2023/05/08 00:24:50;;;;;;;25.00;17.65;;;10.90;99.90;;;;;;5066220;28;20040;-66
2023/05/08 00:27:16;;;;;;;22.85;17.40;;;10.90;99.90;;;;;;5065648;28;20123;-69
2023/05/08 00:29:42;;;;;;;24.85;18.48;;;10.90;99.90;;;;;;5065557;28;20047;-67
2023/05/08 00:32:08;;;;;;;23.90;18.13;;;10.90;99.90;;;;;;5049507;28;20067;-69
2023/05/08 00:34:35;;;;;;;23.17;18.42;;;10.90;99.90;;;;;;5063431;28;20097;-68
2023/05/08 00:37:02;;;;;;;23.38;17.75;;;10.90;99.90;;;;;;5086320;28;20520;-68
2023/05/08 00:39:28;;;;;;;26.33;18.95;;;10.90;99.90;;;;;;5066128;28;20404;-67
2023/05/08 00:41:54;;;;;;;24.27;18.55;;;10.90;99.90;;;;;;5049504;28;20045;-65
2023/05/08 00:44:19;;;;;;;26.30;19.02;;;10.90;99.90;;;;;;5048508;28;20043;-66
2023/05/08 00:46:45;;;;;;;26.48;18.10;;;10.90;99.90;;;;;;5065421;28;20033;-65
2023/05/08 00:49:13;;;;;;;24.45;18.50;;;10.80;99.90;;;;;;5067856;28;20040;-64
2023/05/08 00:51:48;;;;;;;24.55;17.85;;;10.80;99.90;;;;;;5049240;28;20036;-66
2023/05/08 00:54:15;;;;;;;25.38;18.40;;;10.80;99.90;;;;;;5068252;28;20043;-64
2023/05/08 00:56:42;;;;;;;25.05;19.35;;;10.70;99.90;;;;;;5068997;28;20497;-65
2023/05/08 00:59:10;;;;;;;23.67;17.73;;;10.70;99.90;;;;;;5062482;28;20051;-66
2023/05/08 01:01:37;;;;;;;25.25;18.35;;;10.70;99.90;;;;;;5082218;28;20522;-67
2023/05/08 01:04:04;;;;;;;23.25;18.30;;;10.60;99.90;;;;;;5057767;28;20508;-66
2023/05/08 01:06:30;;;;;;;24.67;18.63;;;10.60;99.90;;;;;;5063091;28;20062;-63
2023/05/08 01:08:56;;;;;;;25.52;18.92;;;10.60;99.90;;;;;;5064776;28;20068;-66
2023/05/08 01:11:28;;;;;;;25.80;18.23;;;10.60;99.90;;;;;;5048236;28;20541;-68
2023/05/08 01:14:30;;;;;;;30.70;18.73;;;10.50;99.90;;;;;;5065136;28;20082;-67
2023/05/08 01:17:15;;;;;;;26.13;18.23;;;10.50;99.90;;;;;;5065309;28;20476;-65
2023/05/08 01:20:07;;;;;;;26.85;19.33;;;10.40;99.90;;;;;;5048267;28;20047;-67
2023/05/08 01:23:03;;;;;;;23.95;18.20;;;10.40;99.90;;;;;;5048644;28;20040;-67
2023/05/08 01:25:54;;;;;;;28.40;19.42;;;10.40;99.90;;;;;;5063859;28;20040;-67
2023/05/08 01:28:41;;;;;;;22.80;17.88;;;10.30;99.90;;;;;;5065053;28;20119;-65
2023/05/08 01:31:45;;;;;;;25.77;17.80;;;10.30;99.90;;;;;;5047831;28;20041;-68
2023/05/08 01:34:20;;;;;;;24.00;18.60;;;10.30;99.90;;;;;;5055977;28;20048;-68
2023/05/08 01:37:18;;;;;;;;;;;10.20;99.90;;;;;;5068510;28;20574;-66
2023/05/08 01:40:06;;;;;;;26.20;18.63;;;10.20;99.90;;;;;;5012833;28;19916;-66
2023/05/08 01:42:35;;;;;;;27.42;18.83;;;10.10;99.90;;;;;;5079186;28;20052;-65
2023/05/08 01:45:06;;;;;;;22.02;17.25;;;10.10;99.90;;;;;;5064168;28;20051;-65
2023/05/08 01:47:35;;;;;;;24.13;17.52;;;10.00;99.90;;;;;;5063999;28;20094;-66
2023/05/08 01:50:10;;;;;;;26.08;18.75;;;10.00;99.90;;;;;;5047678;28;20036;-66
2023/05/08 01:52:47;;;;;;;24.98;17.70;;;10.00;99.90;;;;;;5051104;28;20093;-67
2023/05/08 01:55:26;;;;;;;25.10;18.27;;;10.00;99.90;;;;;;5057612;28;20123;-67
2023/05/08 01:57:55;;;;;;;25.38;17.77;;;10.00;99.90;;;;;;5060252;28;20040;-68
2023/05/08 02:00:22;;;;;;;23.05;17.85;;;10.00;99.90;;;;;;5067221;28;20139;-69
2023/05/08 02:02:53;;;;;;;27.50;18.05;;;10.00;99.90;;;;;;5054573;28;20048;-67
2023/05/08 02:05:21;;;;;;;26.20;18.73;;;10.00;99.90;;;;;;5064306;28;20127;-68
2023/05/08 02:07:48;;;;;;;26.70;19.45;;;9.90;99.90;;;;;;5047042;28;20123;-69
2023/05/08 02:10:15;;;;;;;25.60;18.48;;;10.00;99.90;;;;;;5048858;28;20131;-67
2023/05/08 02:12:43;;;;;;;24.88;17.52;;;9.90;99.90;;;;;;5066003;28;20437;-68
2023/05/08 02:15:12;;;;;;;27.80;19.27;;;9.90;99.90;;;;;;5064136;28;20037;-67
2023/05/08 02:17:39;;;;;;;25.33;17.70;;;9.90;99.90;;;;;;5047020;28;20048;-69
2023/05/08 02:20:07;;;;;;;28.00;18.75;;;9.90;99.90;;;;;;5047090;28;20084;-68
2023/05/08 02:22:35;;;;;;;23.88;17.55;;;9.90;99.90;;;;;;5063513;28;20079;-67
2023/05/08 02:25:01;;;;;;;27.40;18.30;;;9.90;99.90;;;;;;5047480;28;20052;-70
2023/05/08 02:27:29;;;;;;;24.55;17.85;;;9.80;99.90;;;;;;5063063;28;20041;-70
2023/05/08 02:29:55;;;;;;;28.40;18.33;;;9.80;99.90;;;;;;5046441;28;20044;-69
2023/05/08 02:32:24;;;;;;;24.15;18.45;;;9.80;99.90;;;;;;5064019;28;20059;-66
2023/05/08 02:34:52;;;;;;;25.88;18.50;;;9.80;99.90;;;;;;5047122;28;20075;-68
2023/05/08 02:37:20;;;;;;;26.38;18.40;;;9.70;99.90;;;;;;5046822;28;20047;-67
2023/05/08 02:39:47;;;;;;;26.75;18.70;;;9.70;99.90;;;;;;5063036;28;20742;-68
2023/05/08 02:42:14;;;;;;;24.48;18.13;;;9.70;99.90;;;;;;5063870;28;20052;-68
2023/05/08 02:44:40;;;;;;;26.60;18.63;;;9.70;99.90;;;;;;5063412;28;20082;-67
2023/05/08 02:47:26;;;;;;;25.05;18.33;;;9.70;99.90;;;;;;5046964;28;20390;-68
2023/05/08 02:50:22;;;;;;;27.02;19.80;;;9.60;99.90;;;;;;5079693;28;20054;-68
2023/05/08 02:52:52;;;;;;;26.85;19.25;;;9.60;99.90;;;;;;5073366;28;20045;-68
2023/05/08 02:55:25;;;;;;;27.90;19.25;;;9.60;99.90;;;;;;5062042;28;20079;-64
2023/05/08 02:58:12;;;;;;;25.70;18.65;;;9.50;99.90;;;;;;5068263;28;20038;-64
2023/05/08 03:01:06;;;;;;;25.63;19.10;;;9.60;99.90;;;;;;5066668;28;20142;-65
2023/05/08 03:03:39;;;;;;;27.52;19.10;;;9.50;99.90;;;;;;5065767;28;20110;-65
2023/05/08 03:06:12;;;;;;;30.17;20.00;;;9.50;99.90;;;;;;5046675;28;20411;-64
2023/05/08 03:08:39;;;;;;;26.48;19.48;;;9.50;99.90;;;;;;5046472;28;20388;-64
2023/05/08 03:11:13;;;;;;;25.15;17.65;;;9.50;99.90;;;;;;5046362;28;20044;-64
2023/05/08 03:13:42;;;;;;;25.38;18.80;;;9.40;99.90;;;;;;5046623;28;20082;-66
2023/05/08 03:16:15;;;;;;;25.63;18.02;;;9.40;99.90;;;;;;5062781;28;20041;-64
2023/05/08 03:18:52;;;;;;;28.30;19.90;;;9.40;99.90;;;;;;5046807;28;20037;-65
2023/05/08 03:21:20;;;;;;;26.90;19.52;;;9.40;99.90;;;;;;5046629;28;20052;-65
2023/05/08 03:23:48;;;;;;;27.83;19.75;;;9.30;99.90;;;;;;5046190;28;20041;-66
2023/05/08 03:26:18;;;;;;;28.17;17.95;;;9.30;99.90;;;;;;5054074;28;20542;-64
2023/05/08 03:28:49;;;;;;;28.17;20.20;;;9.30;99.90;;;;;;5069004;28;20129;-64
2023/05/08 03:31:21;;;;;;;29.45;20.13;;;9.30;99.90;;;;;;5046376;28;20037;-65
2023/05/08 03:33:49;;;;;;;29.00;19.45;;;9.20;99.90;;;;;;5049856;28;20086;-65
2023/05/08 03:36:15;;;;;;;28.98;19.63;;;9.20;99.90;;;;;;5050038;28;20033;-64
2023/05/08 03:38:42;;;;;;;26.02;18.75;;;9.10;99.90;;;;;;5050105;28;20593;-65
2023/05/08 03:41:07;;;;;;;27.83;19.48;;;9.10;99.90;;;;;;5049684;28;20044;-66
2023/05/08 03:43:36;;;;;;;25.00;18.45;;;9.10;99.90;;;;;;5049985;28;20503;-65
2023/05/08 03:46:03;;;;;;;26.95;18.65;;;9.10;99.90;;;;;;5065916;28;20044;-65
2023/05/08 03:48:33;;;;;;;27.80;19.23;;;9.10;99.90;;;;;;5050419;28;20039;-65
2023/05/08 03:51:01;;;;;;;26.90;18.75;;;9.10;99.90;;;;;;5066881;28;20048;-66
2023/05/08 03:53:29;;;;;;;26.42;18.88;;;9.10;99.90;;;;;;5050789;28;20044;-64
2023/05/08 03:55:57;;;;;;;28.15;19.77;;;9.10;99.90;;;;;;5069358;28;20037;-65
2023/05/08 03:58:33;;;;;;;27.95;19.02;;;9.10;99.90;;;;;;5055475;28;20044;-65
2023/05/08 04:01:14;;;;;;;24.77;18.80;;;9.10;99.90;;;;;;5049866;28;20044;-65
2023/05/08 04:04:18;;;;;;;24.73;18.10;;;9.10;99.90;;;;;;5050361;28;20051;-66
2023/05/08 04:06:58;;;;;;;26.17;18.30;;;9.10;99.90;;;;;;5028614;28;20502;-64
2023/05/08 04:09:33;;;;;;;28.33;18.05;;;9.10;99.90;;;;;;5048999;28;20589;-65
2023/05/08 04:12:21;;;;;;;27.90;18.35;;;9.10;99.90;;;;;;5081014;28;20039;-65
2023/05/08 04:14:52;;;;;;;25.00;17.95;;;9.20;99.90;;;;;;5049297;28;20128;-66
2023/05/08 04:17:35;;;;;;;26.10;18.23;;;9.20;99.90;;;;;;5066026;28;20033;-67
2023/05/08 04:20:03;;;;;;;24.13;17.60;;;9.20;99.90;;;;;;5083531;28;20048;-66
2023/05/08 04:22:31;;;;;;;23.40;16.80;;;9.30;99.90;;;;;;5086629;28;20123;-66
2023/05/08 04:25:01;;;;;;;25.58;18.63;;;9.30;99.90;;;;;;5085594;28;20043;-64
2023/05/08 04:27:28;;;;;;;26.77;18.85;;;9.30;99.90;;;;;;5051911;28;20047;-65
2023/05/08 04:29:55;;;;;;;25.92;18.60;;;9.30;99.90;;;;;;5048959;28;20193;-64
2023/05/08 04:32:22;;;;;;;26.55;19.10;;;9.50;99.90;;;;;;5049586;28;20146;-65
2023/05/08 04:34:51;;;;;;;24.02;18.38;;;9.60;99.90;;;;;;5066267;28;20044;-65
2023/05/08 04:37:28;;;;;;;22.50;16.25;;;9.80;99.90;;;;;;5049267;28;20278;-65
2023/05/08 04:39:54;;;;;;;22.98;16.33;;;10.00;99.90;;;;;;5048536;28;20028;-65
2023/05/08 04:42:20;;;;;;;21.05;15.77;;;10.20;99.90;;;;;;5065360;28;20047;-64
2023/05/08 04:44:46;;;;;;;24.30;16.23;;;10.40;99.90;;;;;;5049122;28;20519;-66
2023/05/08 04:47:13;;;;;;;25.70;16.10;;;10.50;99.90;;;;;;5048833;28;20583;-64
2023/05/08 04:49:38;;;;;;;19.88;15.18;;;10.70;99.90;;;;;;5065746;28;20117;-64
2023/05/08 04:52:05;;;;;;;20.83;15.27;;;10.80;99.90;;;;;;5069530;28;20505;-64
2023/05/08 04:54:31;;;;;;;19.25;14.25;;;11.00;99.90;;;;;;5065525;28;20071;-66
2023/05/08 04:56:57;;;;;;;19.13;14.25;;;11.20;99.90;;;;;;5065087;28;20044;-64
2023/05/08 04:59:23;;;;;;;22.42;15.55;;;11.40;99.90;;;;;;5081632;28;20056;-66
2023/05/08 05:01:50;;;;;;;22.92;16.58;;;11.60;99.90;;;;;;5080807;28;20423;-65
2023/05/08 05:04:16;;;;;;;20.63;14.18;;;11.80;99.90;;;;;;5048932;28;20120;-69
2023/05/08 05:06:42;;;;;;;19.85;13.68;;;12.00;99.90;;;;;;5060604;28;20238;-67
2023/05/08 05:09:08;;;;;;;19.20;14.00;;;12.30;99.90;;;;;;5049826;28;20125;-66
2023/05/08 05:11:33;;;;;;;19.05;13.75;;;12.80;99.90;;;;;;5048632;28;20590;-68
2023/05/08 05:13:59;;;;;;;16.95;12.02;;;13.20;99.90;;;;;;5048319;28;20409;-66
2023/05/08 05:16:26;;;;;;;17.33;11.93;;;13.40;99.90;;;;;;5064863;28;20640;-65
2023/05/08 05:18:52;;;;;;;20.02;13.18;;;13.70;99.90;;;;;;5064677;28;20044;-65
2023/05/08 05:21:18;;;;;;;19.25;12.23;;;14.20;99.90;;;;;;5048266;28;20044;-66
2023/05/08 05:23:44;;;;;;;15.25;11.68;;;14.40;99.90;;;;;;5048282;28;20407;-65
2023/05/08 05:26:10;;;;;;;22.08;13.07;;;14.60;99.90;;;;;;5063520;28;20083;-66
2023/05/08 05:28:36;;;;;;;16.33;11.73;;;14.70;99.90;;;;;;5048642;28;20044;-66
2023/05/08 05:31:02;;;;;;;17.10;12.57;;;14.50;99.90;;;;;;5071946;28;20048;-69
2023/05/08 05:33:28;;;;;;;14.73;11.95;;;14.10;99.90;;;;;;5083999;28;20123;-72
2023/05/08 05:35:54;;;;;;;14.85;11.73;;;13.90;99.90;;;;;;5079371;28;20176;-68
2023/05/08 05:38:20;;;;;;;16.80;12.05;;;13.90;99.90;;;;;;5075688;28;20044;-68
2023/05/08 05:40:45;;;;;;;14.57;11.88;;;13.80;99.90;;;;;;5055918;28;20065;-69
2023/05/08 05:43:11;;;;;;;15.13;11.73;;;13.70;99.90;;;;;;5058230;28;20067;-70
2023/05/08 05:45:38;;;;;;;15.50;11.98;;;13.50;99.90;;;;;;5067458;28;20613;-71
2023/05/08 05:48:04;;;;;;;15.77;13.02;;;13.70;99.90;;;;;;5048956;28;20801;-65
2023/05/08 05:50:38;;;;;;;17.13;11.98;;;13.90;99.90;;;;;;5084838;28;20043;-68
2023/05/08 05:53:04;;;;;;;17.80;12.40;;;14.40;99.90;;;;;;5059464;28;20127;-68
2023/05/08 05:55:30;;;;;;;15.45;11.93;;;14.60;99.90;;;;;;5051614;28;20072;-70
2023/05/08 05:57:56;;;;;;;16.85;12.23;;;14.60;99.90;;;;;;5048297;28;20040;-68
2023/05/08 06:00:22;;;;;;;16.10;11.45;;;14.50;99.90;;;;;;5067157;28;20036;-72
2023/05/08 06:02:48;;;;;;;17.67;12.25;;;14.30;99.90;;;;;;5048442;28;20076;-68
2023/05/08 06:05:14;;;;;;;16.45;11.60;;;14.30;99.90;;;;;;5047114;28;20487;-68
2023/05/08 06:07:39;;;;;;;17.88;12.32;;;14.10;99.90;;;;;;5064258;28;20055;-71
2023/05/08 06:10:09;;;;;;;14.73;11.77;;;13.80;99.90;;;;;;5051119;28;20503;-69
2023/05/08 06:12:35;;;;;;;16.77;12.88;;;13.60;99.90;;;;;;5080735;28;20526;-70
2023/05/08 06:15:01;;;;;;;15.70;12.50;;;13.60;99.90;;;;;;5046607;28;20490;-68
2023/05/08 06:17:27;;;;;;;15.93;12.48;;;13.50;99.90;;;;;;5047559;28;20046;-68
2023/05/08 06:19:55;;;;;;;16.98;12.90;;;13.50;99.90;;;;;;5047716;28;20127;-66
2023/05/08 06:22:22;;;;;;;14.98;11.75;;;13.40;99.90;;;;;;5047148;28;20041;-69
2023/05/08 06:24:52;;;;;;;17.15;13.07;;;13.20;99.90;;;;;;5062178;28;20045;-71
2023/05/08 06:27:21;;;;;;;17.35;12.88;;;13.00;99.90;;;;;;5063638;28;20040;-70
2023/05/08 06:29:50;;;;;;;17.13;13.20;;;12.80;99.90;;;;;;5047034;28;20488;-72
2023/05/08 06:32:17;;;;;;;19.02;13.13;;;12.60;99.90;;;;;;5063913;28;20040;-67
2023/05/08 06:34:42;;;;;;;17.88;13.57;;;12.50;99.90;;;;;;5061099;28;20036;-72
2023/05/08 06:37:08;;;;;;;19.25;13.98;;;12.40;99.90;;;;;;5065667;28;20069;-68
2023/05/08 06:39:34;;;;;;;18.60;14.63;;;12.30;99.90;;;;;;5063329;28;20121;-71
2023/05/08 06:42:00;;;;;;;19.92;14.48;;;12.30;99.90;;;;;;5063572;28;20046;-69
2023/05/08 06:44:25;;;;;;;19.48;14.40;;;12.30;99.90;;;;;;5063074;28;20471;-70
2023/05/08 06:46:51;;;;;;;17.80;13.75;;;12.20;99.90;;;;;;5046919;28;20091;-68
2023/05/08 06:49:17;;;;;;;17.23;14.05;;;12.20;99.90;;;;;;5073995;28;20426;-67
2023/05/08 06:51:42;;;;;;;18.60;14.10;;;12.20;99.90;;;;;;5065993;28;20040;-69
2023/05/08 06:54:08;;;;;;;19.08;14.40;;;12.30;99.90;;;;;;5052170;28;20530;-65
2023/05/08 06:56:34;;;;;;;18.75;14.52;;;12.30;99.90;;;;;;5082908;28;20042;-70
2023/05/08 06:59:00;;;;;;;19.88;14.70;;;12.20;99.90;;;;;;5080670;28;20175;-68
2023/05/08 07:01:26;;;;;;;20.10;15.45;;;12.20;99.90;;;;;;5062608;28;20578;-69
2023/05/08 07:03:52;;;;;;;19.25;14.70;;;12.20;99.90;;;;;;5047388;28;20039;-67
2023/05/08 07:06:17;;;;;;;18.90;14.75;;;12.30;99.90;;;;;;5073199;28;20044;-68
2023/05/08 07:08:43;;;;;;;20.88;15.40;;;12.30;99.90;;;;;;5064352;28;20557;-65
2023/05/08 07:11:09;;;;;;;18.95;15.18;;;12.30;99.90;;;;;;5049879;28;20044;-67
2023/05/08 07:13:35;;;;;;;19.00;14.63;;;12.40;99.90;;;;;;5050843;28;20499;-64
2023/05/08 07:16:02;;;;;;;19.98;15.50;;;12.40;99.90;;;;;;5066990;28;20542;-67
2023/05/08 07:18:28;;;;;;;19.55;14.82;;;12.50;99.90;;;;;;5078242;28;20079;-67
2023/05/08 07:20:53;;;;;;;19.35;15.20;;;12.50;99.90;;;;;;5059038;28;20068;-70
2023/05/08 07:23:20;;;;;;;22.05;15.10;;;12.60;99.90;;;;;;5077541;28;20441;-68
2023/05/08 07:25:46;;;;;;;23.88;16.48;;;12.60;99.90;;;;;;5074364;28;20075;-71
2023/05/08 07:28:12;;;;;;;19.30;15.50;;;12.70;99.90;;;;;;5077455;28;20047;-69
2023/05/08 07:30:38;;;;;;;29.92;15.30;;;12.70;99.90;;;;;;5075754;28;20079;-68
2023/05/08 07:33:07;;;;;;;18.33;14.52;;;12.80;99.90;;;;;;5078053;28;20064;-68
2023/05/08 07:35:33;;;;;;;20.60;16.00;;;12.90;99.90;;;;;;5059936;28;20091;-66
2023/05/08 07:37:59;;;;;;;19.17;15.77;;;13.00;99.90;;;;;;5060506;28;20068;-65
2023/05/08 07:40:25;;;;;;;18.98;14.65;;;13.10;99.90;;;;;;5057698;28;20044;-70
2023/05/08 07:42:51;;;;;;;19.08;14.60;;;13.20;99.90;;;;;;5076794;28;20044;-65
2023/05/08 07:45:17;;;;;;;19.75;14.82;;;13.40;99.90;;;;;;5054943;28;20048;-65
2023/05/08 07:47:57;;;;;;;21.45;14.43;;;13.50;99.90;;;;;;5075518;28;20055;-64
2023/05/08 07:50:25;;;;;;;23.38;15.23;;;13.60;99.90;;;;;;5075556;28;20131;-68
2023/05/08 07:52:51;;;;;;;19.55;15.05;;;13.70;99.90;;;;;;5074497;28;20488;-69
2023/05/08 07:55:18;;;;;;;19.80;14.93;;;13.80;99.90;;;;;;5047997;28;20174;-66
2023/05/08 07:57:47;;;;;;;19.15;14.75;;;13.90;99.90;;;;;;5064994;28;20032;-65
2023/05/08 08:00:14;;;;;;;20.70;14.70;;;14.00;99.90;;;;;;5060787;28;20044;-65
2023/05/08 08:02:41;;;;;;;18.73;15.20;;;14.00;99.90;;;;;;5075879;28;20068;-71
2023/05/08 08:05:07;;;;;;;18.90;15.27;;;14.10;99.90;;;;;;5058563;28;20047;-71
2023/05/08 08:07:34;;;;;;;16.77;14.23;;;14.20;99.90;;;;;;5077690;28;20040;-67
2023/05/08 08:10:00;;;;;;;20.25;14.38;;;14.20;99.90;;;;;;5076252;28;20145;-65
2023/05/08 08:12:26;;;;;;;18.10;14.50;;;14.30;99.90;;;;;;5074957;28;20082;-67
2023/05/08 08:14:52;;;;;;;20.15;14.88;;;14.50;99.90;;;;;;5059325;28;20093;-68
2023/05/08 08:17:18;;;;;;;20.35;15.50;;;14.60;99.90;;;;;;5075794;28;20040;-66
2023/05/08 08:19:44;;;;;;;19.35;14.82;;;14.60;99.90;;;;;;5055913;28;20040;-67
2023/05/08 08:22:09;;;;;;;18.98;14.85;;;14.60;99.90;;;;;;5051295;28;20054;-70
2023/05/08 08:24:35;;;;;;;18.20;13.82;;;14.70;99.90;;;;;;5068013;28;20078;-69
2023/05/08 08:27:02;;;;;;;19.50;14.48;;;14.70;99.90;;;;;;5076455;28;20040;-66
2023/05/08 08:29:29;;;;;;;20.48;14.60;;;14.70;99.90;;;;;;5072046;28;20041;-68
2023/05/08 08:31:55;;;;;;;21.35;14.82;;;14.90;99.90;;;;;;5059289;28;20036;-67
2023/05/08 08:34:21;;;;;;;20.92;14.18;;;15.10;99.90;;;;;;5062741;28;20155;-65
2023/05/08 08:36:47;;;;;;;16.63;14.00;;;15.20;99.90;;;;;;5069113;28;20040;-66
2023/05/08 08:39:13;;;;;;;17.92;14.82;;;15.50;99.90;;;;;;5078876;28;20189;-69
2023/05/08 08:41:39;;;;;;;16.92;14.30;;;15.80;99.90;;;;;;5049878;28;20042;-65
2023/05/08 08:44:05;;;;;;;19.75;13.95;;;16.10;99.90;;;;;;5064568;28;20048;-68
2023/05/08 08:46:34;;;;;;;17.23;13.75;;;16.30;99.90;;;;;;5082276;28;20097;-69
2023/05/08 08:49:03;;;;;;;18.63;14.13;;;16.50;99.90;;;;;;5080373;28;20032;-65
2023/05/08 08:51:41;;;;;;;17.92;12.73;;;16.60;99.90;;;;;;5087676;28;20055;-65
2023/05/08 08:54:10;;;;;;;17.52;14.55;;;16.60;99.90;;;;;;5048476;28;20099;-65
2023/05/08 08:56:38;;;;;;;17.83;14.88;;;16.70;99.90;;;;;;5066104;28;20399;-68
2023/05/08 08:59:05;;;;;;;17.73;14.50;;;16.70;99.90;;;;;;5058045;28;20098;-65
2023/05/08 09:01:37;;;;;;;17.50;14.40;;;16.80;99.90;;;;;;5065246;28;20036;-66
2023/05/08 09:04:04;;;;;;;17.77;14.25;;;16.90;99.90;;;;;;5048881;28;20056;-65
2023/05/08 09:06:30;;;;;;;16.85;14.23;;;16.90;99.90;;;;;;5065787;28;20044;-70
2023/05/08 09:08:56;;;;;;;16.52;14.20;;;17.00;99.90;;;;;;5048826;28;20033;-65
2023/05/08 09:11:26;;;;;;;17.33;14.40;;;17.10;99.90;;;;;;5063434;28;20101;-65
2023/05/08 09:13:54;;;;;;;19.70;14.23;;;17.30;99.90;;;;;;5070153;28;20121;-67
2023/05/08 09:16:20;;;;;;;18.35;14.63;;;17.40;99.90;;;;;;5034703;28;20063;-66
2023/05/08 09:18:47;;;;;;;19.45;15.80;;;17.30;99.90;;;;;;5068436;28;20043;-65
2023/05/08 09:21:13;;;;;;;20.02;15.70;;;17.30;99.90;;;;;;5065442;28;20565;-66
2023/05/08 09:23:54;;;;;;;19.30;16.02;;;17.10;99.90;;;;;;5053483;28;20051;-66
2023/05/08 09:26:40;;;;;;;17.92;15.38;;;17.00;99.90;;;;;;5055531;28;20086;-65
2023/05/08 09:29:18;;;;;;;22.02;16.30;;;17.10;99.90;;;;;;5071974;28;20139;-64
2023/05/08 09:31:51;;;;;;;17.25;15.45;;;17.10;99.90;;;;;;5056779;28;20040;-65
2023/05/08 09:34:29;;;;;;;18.67;15.00;;;17.10;99.90;;;;;;5058741;28;20114;-65
2023/05/08 09:37:15;;;;;;;23.02;16.38;;;17.20;99.90;;;;;;5073551;28;20540;-65
2023/05/08 09:39:42;;;;;;;19.77;16.58;;;17.50;99.90;;;;;;5081915;28;20044;-68
2023/05/08 09:42:08;;;;;;;20.90;16.40;;;17.60;99.90;;;;;;5073232;28;20211;-65
2023/05/08 09:44:52;;;;;;;20.15;15.98;;;17.70;99.90;;;;;;5074570;28;20047;-65
2023/05/08 09:47:20;;;;;;;18.65;16.33;;;17.80;99.90;;;;;;5058277;28;20046;-65
2023/05/08 09:50:07;;;;;;;22.27;16.95;;;18.00;99.90;;;;;;5054887;28;20043;-74
2023/05/08 09:52:33;;;;;;;18.08;15.38;;;18.20;99.90;;;;;;5054678;28;20423;-63
2023/05/08 09:55:04;;;;;;;20.85;17.85;;;18.30;99.90;;;;;;5054033;28;20042;-63
2023/05/08 09:57:31;;;;;;;20.27;16.83;;;18.40;99.90;;;;;;5055606;28;20860;-68
2023/05/08 10:00:15;;;;;;;21.67;16.77;;;18.50;99.90;;;;;;5075447;28;20036;-66
2023/05/08 10:02:56;;;;;;;19.35;16.17;;;18.70;99.90;;;;;;5059514;28;20101;-66
2023/05/08 10:05:28;;;;;;;18.48;16.23;;;19.00;99.90;;;;;;5065466;28;20097;-65
2023/05/08 10:07:54;;;;;;;19.15;16.17;;;19.70;99.90;;;;;;5084033;28;20044;-68
2023/05/08 10:10:32;;;;;;;18.55;16.45;;;20.30;99.90;;;;;;5080444;28;20052;-69
2023/05/08 10:12:57;;;;;;;19.80;16.92;;;20.80;99.90;;;;;;5061665;28;20112;-67
2023/05/08 10:15:31;;;;;;;20.63;16.35;;;21.10;99.90;;;;;;5046438;28;20319;-65
2023/05/08 10:18:05;;;;;;;18.25;16.23;;;21.30;99.90;;;;;;5047570;28;20129;-65
2023/05/08 10:20:32;;;;;;;19.65;17.10;;;21.30;99.90;;;;;;5063885;28;20105;-65
2023/05/08 10:22:58;;;;;;;19.35;17.00;;;21.20;99.90;;;;;;5064031;28;20127;-67
2023/05/08 10:25:26;;;;;;;19.52;17.10;;;20.90;99.90;;;;;;5045492;28;20048;-65
2023/05/08 10:27:56;;;;;;;21.35;17.63;;;20.80;99.90;;;;;;5048428;28;20051;-72
2023/05/08 10:30:26;;;;;;;19.27;16.85;;;20.60;99.90;;;;;;5080454;28;20040;-64
2023/05/08 10:32:57;;;;;;;21.13;16.80;;;20.50;99.90;;;;;;5064319;28;20491;-69
2023/05/08 10:35:24;;;;;;;21.67;19.00;;;20.50;99.90;;;;;;5082570;28;20036;-65
2023/05/08 10:37:52;;;;;;;20.15;17.58;;;20.50;99.90;;;;;;5067673;28;20055;-63
2023/05/08 10:40:20;;;;;;;21.10;17.67;;;20.60;99.90;;;;;;5066577;28;20050;-65
2023/05/08 10:42:46;;;;;;;18.40;16.48;;;20.70;99.90;;;;;;5077263;28;20044;-68
2023/05/08 10:45:12;;;;;;;18.33;16.35;;;20.60;99.90;;;;;;5062748;28;20136;-65
2023/05/08 10:48:02;;;;;;;19.20;16.75;;;20.60;99.90;;;;;;5063713;28;20084;-65
2023/05/08 10:50:41;;;;;;;26.20;19.02;;;20.80;99.90;;;;;;5063604;28;20506;-65
2023/05/08 10:53:16;;;;;;;20.30;18.20;;;20.80;99.90;;;;;;5060112;28;20044;-65
2023/05/08 10:55:46;;;;;;;20.60;16.75;;;20.90;99.90;;;;;;5056019;28;20550;-67
2023/05/08 10:58:14;;;;;;;20.88;18.67;;;21.10;99.90;;;;;;5063288;28;20063;-64
2023/05/08 11:00:52;;;;;;;21.63;17.50;;;21.20;99.90;;;;;;5046497;28;20044;-65
2023/05/08 11:03:21;;;;;;;21.63;18.88;;;21.30;99.90;;;;;;5077957;28;20089;-68
2023/05/08 11:05:48;;;;;;;22.80;19.13;;;21.30;99.90;;;;;;5074260;28;20522;-70
2023/05/08 11:08:16;;;;;;;19.55;16.60;;;21.30;99.90;;;;;;5063608;28;20036;-66
2023/05/08 11:10:47;;;;;;;19.83;16.58;;;21.40;99.90;;;;;;5062531;28;20083;-65
2023/05/08 11:13:13;;;;;;;20.80;17.95;;;21.40;99.90;;;;;;5062564;28;20048;-65
2023/05/08 11:15:40;;;;;;;21.05;18.73;;;21.50;99.90;;;;;;5062335;28;20068;-70
2023/05/08 11:18:08;;;;;;;22.13;18.02;;;21.40;99.90;;;;;;5046973;28;20036;-66
2023/05/08 11:20:39;;;;;;;21.42;18.88;;;21.40;99.90;;;;;;5063610;28;20479;-67
2023/05/08 11:23:24;;;;;;;21.60;17.60;;;21.40;99.90;;;;;;5063567;28;20703;-65
2023/05/08 11:26:01;;;;;;;20.92;16.98;;;21.50;99.90;;;;;;5062375;28;20098;-64
2023/05/08 11:28:31;;;;;;;21.13;18.17;;;21.50;99.50;;;;;;5074609;28;20040;-64
2023/05/08 11:31:04;;;;;;;21.33;19.02;;;21.60;99.90;;;;;;5065991;28;20051;-66
2023/05/08 11:33:32;;;;;;;19.73;17.13;;;21.60;99.90;;;;;;5062970;28;20037;-67
2023/05/08 11:36:10;;;;;;;19.95;17.58;;;21.50;99.60;;;;;;5046001;28;20037;-65
2023/05/08 11:38:37;;;;;;;21.77;18.67;;;21.40;99.40;;;;;;5046606;28;20049;-68
2023/05/08 11:41:11;;;;;;;20.88;18.08;;;21.30;99.80;;;;;;5062561;28;20397;-65
2023/05/08 11:43:48;;;;;;;20.52;18.27;;;21.30;99.90;;;;;;5046245;28;20056;-65
2023/05/08 11:46:15;;;;;;;22.80;19.38;;;21.30;99.90;;;;;;5062477;28;20512;-66
2023/05/08 11:48:41;;;;;;;24.30;19.50;;;21.20;99.90;;;;;;5063590;28;20039;-64
2023/05/08 11:51:07;;;;;;;22.25;18.63;;;21.30;99.90;;;;;;5046807;28;20098;-64
2023/05/08 11:53:35;;;;;;;21.85;19.25;;;21.50;99.90;;;;;;5049091;28;20040;-70
2023/05/08 11:56:02;;;;;;;24.48;19.77;;;21.80;99.90;;;;;;5073285;28;20106;-66
2023/05/08 11:58:28;;;;;;;21.70;18.63;;;21.90;99.80;;;;;;5071958;28;20044;-63
2023/05/08 12:00:54;;;;;;;23.70;19.40;;;22.00;99.80;;;;;;5069185;28;20676;-65
2023/05/08 12:03:23;;;;;;;21.08;18.77;;;22.00;99.80;;;;;;5067227;28;20036;-64
2023/05/08 12:05:50;;;;;;;23.50;19.80;;;22.00;99.70;;;;;;5066374;28;20123;-63
2023/05/08 12:08:17;;;;;;;23.10;20.60;;;22.00;99.70;;;;;;5049765;28;20040;-68
2023/05/08 12:10:46;;;;;;;22.25;19.85;;;22.00;99.90;;;;;;5063698;28;20086;-65
2023/05/08 12:13:17;;;;;;;22.45;19.75;;;22.00;99.90;;;;;;5079906;28;20186;-66
2023/05/08 12:15:44;;;;;;;22.15;19.58;;;22.00;99.70;;;;;;5065138;28;20045;-66
2023/05/08 12:18:10;;;;;;;22.95;20.05;;;22.00;98.60;;;;;;5066671;28;20651;-68
2023/05/08 12:20:35;;;;;;;24.20;20.70;;;22.00;99.80;;;;;;5066142;28;20040;-67
2023/05/08 12:23:02;;;;;;;22.60;19.80;;;22.00;99.60;;;;;;5065803;28;20040;-70
2023/05/08 12:25:28;;;;;;;21.10;18.05;;;22.20;98.60;;;;;;5083947;28;20028;-66
2023/05/08 12:27:55;;;;;;;22.05;19.27;;;22.30;99.50;;;;;;5079056;28;20127;-64
2023/05/08 12:30:24;;;;;;;20.92;18.58;;;22.30;98.70;;;;;;5065291;28;20082;-66
2023/05/08 12:32:50;;;;;;;19.38;17.00;;;22.10;99.10;;;;;;5073673;28;20032;-68
2023/05/08 12:35:16;;;;;;;21.63;17.48;;;22.00;99.70;;;;;;5076061;28;20043;-67
2023/05/08 12:37:45;;;;;;;20.95;16.45;;;22.10;98.90;;;;;;5057234;28;20033;-68
2023/05/08 12:40:23;;;;;;;23.55;17.33;;;22.00;98.80;;;;;;5061612;28;20125;-65